sensor_id;sensor_type;location;lat;lon;timestamp;pressure;altitude;pressure_sealevel;temperature;humidity
62011;BME280;47967;51.756;10.174;2023-04-29T04:04:02;99296.78;;;12.50;80.45
62011;BME280;47967;51.756;10.174;2023-04-29T04:08:07;99298.78;;;12.55;80.63
62011;BME280;47967;51.756;10.174;2023-04-29T04:12:36;99307.59;;;12.50;80.66
62011;BME280;47967;51.756;10.174;2023-04-29T04:16:39;99315.50;;;12.52;80.85
62011;BME280;47967;51.756;10.174;2023-04-29T04:20:43;99321.72;;;12.52;80.42
62011;BME280;47967;51.756;10.174;2023-04-29T04:24:46;99322.84;;;12.44;80.86
62011;BME280;47967;51.756;10.174;2023-04-29T04:28:48;99328.13;;;12.58;80.39
62011;BME280;47967;51.756;10.174;2023-04-29T04:33:20;99329.06;;;12.45;80.92
62011;BME280;47967;51.756;10.174;2023-04-29T04:37:24;99340.41;;;12.35;81.65
62011;BME280;47967;51.756;10.174;2023-04-29T04:41:30;99342.63;;;12.20;82.80
62011;BME280;47967;51.756;10.174;2023-04-29T04:45:33;99340.72;;;12.27;83.11
62011;BME280;47967;51.756;10.174;2023-04-29T04:49:37;99351.69;;;12.32;82.76
62011;BME280;47967;51.756;10.174;2023-04-29T04:53:42;99357.97;;;12.26;82.85
62011;BME280;47967;51.756;10.174;2023-04-29T04:58:04;99360.25;;;12.04;84.37
62011;BME280;47967;51.756;10.174;2023-04-29T05:02:07;99379.44;;;11.89;85.63
62011;BME280;47967;51.756;10.174;2023-04-29T05:06:10;99372.09;;;11.96;86.52
62011;BME280;47967;51.756;10.174;2023-04-29T05:10:16;99397.16;;;11.78;87.20
62011;BME280;47967;51.756;10.174;2023-04-29T05:14:23;99388.03;;;11.79;87.69
62011;BME280;47967;51.756;10.174;2023-04-29T05:18:25;99400.25;;;11.88;86.98
62011;BME280;47967;51.756;10.174;2023-04-29T05:22:28;99403.13;;;11.93;85.75
62011;BME280;47967;51.756;10.174;2023-04-29T05:26:32;99401.69;;;11.91;85.25
62011;BME280;47967;51.756;10.174;2023-04-29T05:30:35;99413.66;;;12.08;84.09
62011;BME280;47967;51.756;10.174;2023-04-29T05:34:39;99403.22;;;12.12;83.90
62011;BME280;47967;51.756;10.174;2023-04-29T05:38:42;99411.06;;;12.20;83.50
62011;BME280;47967;51.756;10.174;2023-04-29T05:42:47;99418.84;;;12.35;82.65
62011;BME280;47967;51.756;10.174;2023-04-29T05:51:33;99429.13;;;12.26;82.65
62011;BME280;47967;51.756;10.174;2023-04-29T05:55:36;99431.28;;;12.17;82.53
62011;BME280;47967;51.756;10.174;2023-04-29T05:59:40;99442.81;;;12.31;82.52
62011;BME280;47967;51.756;10.174;2023-04-29T06:03:43;99452.28;;;12.15;82.23
62011;BME280;47967;51.756;10.174;2023-04-29T06:08:03;99457.81;;;12.34;82.23
62011;BME280;47967;51.756;10.174;2023-04-29T06:12:32;99469.44;;;12.35;80.36
62011;BME280;47967;51.756;10.174;2023-04-29T06:16:36;99485.78;;;12.14;79.67
62011;BME280;47967;51.756;10.174;2023-04-29T06:20:39;99485.88;;;11.94;79.88
62011;BME280;47967;51.756;10.174;2023-04-29T06:24:41;99500.63;;;11.98;79.10
62011;BME280;47967;51.756;10.174;2023-04-29T06:28:46;99501.88;;;12.03;78.94
62011;BME280;47967;51.756;10.174;2023-04-29T06:32:50;99507.88;;;12.11;78.52
62011;BME280;47967;51.756;10.174;2023-04-29T06:36:54;99519.19;;;11.88;78.16
62011;BME280;47967;51.756;10.174;2023-04-29T06:41:16;99527.72;;;11.85;78.27
62011;BME280;47967;51.756;10.174;2023-04-29T06:45:22;99523.72;;;11.94;78.55
62011;BME280;47967;51.756;10.174;2023-04-29T06:49:44;99525.84;;;11.85;78.75
62011;BME280;47967;51.756;10.174;2023-04-29T06:53:47;99534.66;;;11.61;79.49
62011;BME280;47967;51.756;10.174;2023-04-29T06:57:50;99545.88;;;11.64;79.72
62011;BME280;47967;51.756;10.174;2023-04-29T07:01:52;99545.19;;;11.82;79.15
62011;BME280;47967;51.756;10.174;2023-04-29T07:05:56;99555.22;;;11.68;79.88
62011;BME280;47967;51.756;10.174;2023-04-29T07:09:59;99571.66;;;11.60;79.67
62011;BME280;47967;51.756;10.174;2023-04-29T07:14:01;99560.63;;;11.62;79.35
62011;BME280;47967;51.756;10.174;2023-04-29T07:18:04;99579.50;;;11.82;79.38
62011;BME280;47967;51.756;10.174;2023-04-29T07:22:09;99578.00;;;12.06;78.81
62011;BME280;47967;51.756;10.174;2023-04-29T07:26:12;99590.94;;;11.97;78.11
62011;BME280;47967;51.756;10.174;2023-04-29T07:30:18;99585.91;;;11.94;78.31
62011;BME280;47967;51.756;10.174;2023-04-29T07:34:20;99605.44;;;12.10;77.83
62011;BME280;47967;51.756;10.174;2023-04-29T07:38:25;99601.44;;;12.19;77.29
62011;BME280;47967;51.756;10.174;2023-04-29T07:42:27;99609.13;;;12.22;77.36
62011;BME280;47967;51.756;10.174;2023-04-29T07:46:30;99622.06;;;12.13;78.44
62011;BME280;47967;51.756;10.174;2023-04-29T07:50:33;99621.91;;;12.01;77.81
62011;BME280;47967;51.756;10.174;2023-04-29T07:54:38;99620.59;;;12.17;78.31
62011;BME280;47967;51.756;10.174;2023-04-29T07:58:40;99622.72;;;12.02;78.03
62011;BME280;47967;51.756;10.174;2023-04-29T08:02:43;99634.78;;;11.99;78.28
62011;BME280;47967;51.756;10.174;2023-04-29T08:06:48;99648.94;;;11.81;78.34
62011;BME280;47967;51.756;10.174;2023-04-29T08:10:52;99662.88;;;11.92;78.46
62011;BME280;47967;51.756;10.174;2023-04-29T08:14:55;99665.59;;;11.72;78.73
62011;BME280;47967;51.756;10.174;2023-04-29T08:18:58;99660.38;;;11.97;78.38
62011;BME280;47967;51.756;10.174;2023-04-29T08:23:00;99675.78;;;11.63;78.65
62011;BME280;47967;51.756;10.174;2023-04-29T08:27:04;99689.09;;;11.58;79.72
62011;BME280;47967;51.756;10.174;2023-04-29T08:31:07;99688.47;;;11.29;79.70
62011;BME280;47967;51.756;10.174;2023-04-29T08:35:11;99694.31;;;11.52;79.74
62011;BME280;47967;51.756;10.174;2023-04-29T08:39:14;99701.16;;;11.48;79.54
62011;BME280;47967;51.756;10.174;2023-04-29T08:43:20;99702.59;;;11.64;79.03
62011;BME280;47967;51.756;10.174;2023-04-29T08:47:22;99718.81;;;11.64;78.14
62011;BME280;47967;51.756;10.174;2023-04-29T08:51:25;99732.31;;;11.64;77.91
62011;BME280;47967;51.756;10.174;2023-04-29T08:55:28;99727.31;;;12.15;76.19
62011;BME280;47967;51.756;10.174;2023-04-29T08:59:32;99731.50;;;11.84;76.96
62011;BME280;47967;51.756;10.174;2023-04-29T09:03:41;99731.28;;;12.12;77.04
62011;BME280;47967;51.756;10.174;2023-04-29T09:07:44;99741.69;;;12.09;76.61
62011;BME280;47967;51.756;10.174;2023-04-29T09:11:48;99743.75;;;11.93;76.78
62011;BME280;47967;51.756;10.174;2023-04-29T09:15:52;99752.06;;;11.72;77.44
62011;BME280;47967;51.756;10.174;2023-04-29T09:19:55;99758.13;;;11.74;77.55
62011;BME280;47967;51.756;10.174;2023-04-29T09:23:59;99772.03;;;11.64;77.16
62011;BME280;47967;51.756;10.174;2023-04-29T09:28:14;99767.88;;;11.81;77.68
62011;BME280;47967;51.756;10.174;2023-04-29T09:32:21;99776.63;;;11.83;77.13
62011;BME280;47967;51.756;10.174;2023-04-29T09:36:35;99784.34;;;12.07;75.10
62011;BME280;47967;51.756;10.174;2023-04-29T09:40:40;99769.75;;;12.21;74.14
62011;BME280;47967;51.756;10.174;2023-04-29T09:44:59;99773.34;;;12.74;72.74
62011;BME280;47967;51.756;10.174;2023-04-29T09:49:03;99781.28;;;13.21;71.88
62011;BME280;47967;51.756;10.174;2023-04-29T09:53:07;99781.38;;;13.33;70.57
62011;BME280;47967;51.756;10.174;2023-04-29T09:57:12;99786.53;;;13.09;69.28
62011;BME280;47967;51.756;10.174;2023-04-29T10:01:16;99786.97;;;13.51;67.79
62011;BME280;47967;51.756;10.174;2023-04-29T10:05:26;99790.16;;;13.67;66.75
62011;BME280;47967;51.756;10.174;2023-04-29T10:09:30;99793.31;;;13.89;66.59
62011;BME280;47967;51.756;10.174;2023-04-29T10:13:33;99801.25;;;13.90;65.66
62011;BME280;47967;51.756;10.174;2023-04-29T10:17:43;99809.28;;;13.01;67.29
62011;BME280;47967;51.756;10.174;2023-04-29T10:21:49;99804.31;;;12.91;69.45
62011;BME280;47967;51.756;10.174;2023-04-29T10:25:52;99809.53;;;12.86;68.88
62011;BME280;47967;51.756;10.174;2023-04-29T10:29:55;99809.75;;;13.30;68.10
62011;BME280;47967;51.756;10.174;2023-04-29T10:34:00;99808.06;;;13.74;66.93
62011;BME280;47967;51.756;10.174;2023-04-29T10:38:09;99808.72;;;13.70;66.32
62011;BME280;47967;51.756;10.174;2023-04-29T10:42:20;99802.25;;;13.71;66.60
62011;BME280;47967;51.756;10.174;2023-04-29T10:46:27;99816.69;;;13.90;66.22
62011;BME280;47967;51.756;10.174;2023-04-29T10:50:31;99808.94;;;13.93;65.91
62011;BME280;47967;51.756;10.174;2023-04-29T10:54:35;99805.59;;;14.42;65.29
62011;BME280;47967;51.756;10.174;2023-04-29T10:58:41;99805.25;;;14.32;64.03
62011;BME280;47967;51.756;10.174;2023-04-29T11:02:44;99812.88;;;13.98;63.74
62011;BME280;47967;51.756;10.174;2023-04-29T11:06:51;99811.97;;;14.29;62.36
62011;BME280;47967;51.756;10.174;2023-04-29T11:10:59;99822.69;;;14.43;61.56
62011;BME280;47967;51.756;10.174;2023-04-29T11:15:02;99821.38;;;14.70;60.95
62011;BME280;47967;51.756;10.174;2023-04-29T11:19:06;99819.50;;;14.89;61.24
62011;BME280;47967;51.756;10.174;2023-04-29T11:23:09;99818.25;;;15.23;61.32
62011;BME280;47967;51.756;10.174;2023-04-29T11:27:14;99832.69;;;15.04;60.09
62011;BME280;47967;51.756;10.174;2023-04-29T11:31:16;99829.75;;;14.87;59.95
62011;BME280;47967;51.756;10.174;2023-04-29T11:35:19;99838.91;;;14.93;58.78
62011;BME280;47967;51.756;10.174;2023-04-29T11:39:22;99832.91;;;15.21;58.83
62011;BME280;47967;51.756;10.174;2023-04-29T11:43:26;99834.94;;;15.26;59.80
62011;BME280;47967;51.756;10.174;2023-04-29T11:47:29;99845.31;;;15.17;58.17
62011;BME280;47967;51.756;10.174;2023-04-29T11:51:33;99852.78;;;15.03;58.48
62011;BME280;47967;51.756;10.174;2023-04-29T11:55:36;99857.38;;;14.66;59.18
62011;BME280;47967;51.756;10.174;2023-04-29T11:59:41;99864.16;;;14.94;58.17
62011;BME280;47967;51.756;10.174;2023-04-29T12:03:44;99861.16;;;14.83;57.88
62011;BME280;47967;51.756;10.174;2023-04-29T12:07:48;99856.53;;;14.40;59.04
62011;BME280;47967;51.756;10.174;2023-04-29T12:11:51;99864.91;;;14.13;60.30
62011;BME280;47967;51.756;10.174;2023-04-29T12:15:56;99875.00;;;13.74;61.97
62011;BME280;47967;51.756;10.174;2023-04-29T12:19:59;99875.41;;;13.39;62.33
62011;BME280;47967;51.756;10.174;2023-04-29T12:24:03;99877.91;;;13.34;63.41
62011;BME280;47967;51.756;10.174;2023-04-29T12:28:10;99882.47;;;13.47;62.90
62011;BME280;47967;51.756;10.174;2023-04-29T12:32:17;99869.72;;;13.47;63.73
62011;BME280;47967;51.756;10.174;2023-04-29T12:36:23;99878.25;;;13.51;63.39
62011;BME280;47967;51.756;10.174;2023-04-29T12:40:25;99897.88;;;13.53;62.71
62011;BME280;47967;51.756;10.174;2023-04-29T12:44:34;99901.22;;;13.48;63.28
62011;BME280;47967;51.756;10.174;2023-04-29T12:48:39;99900.34;;;13.61;63.21
62011;BME280;47967;51.756;10.174;2023-04-29T12:52:43;99894.84;;;13.74;63.34
62011;BME280;47967;51.756;10.174;2023-04-29T12:56:47;99908.97;;;13.76;63.59
62011;BME280;47967;51.756;10.174;2023-04-29T13:00:50;99901.63;;;13.90;62.48
62011;BME280;47967;51.756;10.174;2023-04-29T13:04:54;99902.72;;;14.08;62.05
62011;BME280;47967;51.756;10.174;2023-04-29T13:08:57;99896.66;;;14.38;62.17
62011;BME280;47967;51.756;10.174;2023-04-29T13:13:00;99896.59;;;14.70;61.04
62011;BME280;47967;51.756;10.174;2023-04-29T13:17:02;99902.28;;;14.68;59.87
62011;BME280;47967;51.756;10.174;2023-04-29T13:21:07;99895.44;;;14.84;60.50
62011;BME280;47967;51.756;10.174;2023-04-29T13:25:09;99884.63;;;14.96;59.50
62011;BME280;47967;51.756;10.174;2023-04-29T13:29:12;99880.91;;;15.28;59.16
62011;BME280;47967;51.756;10.174;2023-04-29T13:33:15;99883.47;;;15.41;58.91
62011;BME280;47967;51.756;10.174;2023-04-29T13:37:20;99899.28;;;14.95;58.00
62011;BME280;47967;51.756;10.174;2023-04-29T13:41:23;99902.84;;;14.70;59.70
62011;BME280;47967;51.756;10.174;2023-04-29T13:45:26;99920.81;;;14.21;59.32
62011;BME280;47967;51.756;10.174;2023-04-29T13:49:29;99909.09;;;14.20;59.34
62011;BME280;47967;51.756;10.174;2023-04-29T13:53:53;99903.28;;;14.17;60.07
62011;BME280;47967;51.756;10.174;2023-04-29T13:58:16;99913.59;;;14.58;59.85
62011;BME280;47967;51.756;10.174;2023-04-29T14:02:21;99915.94;;;14.80;58.29
62011;BME280;47967;51.756;10.174;2023-04-29T14:06:26;99919.94;;;14.78;57.57
62011;BME280;47967;51.756;10.174;2023-04-29T14:10:31;99922.22;;;14.81;57.13
62011;BME280;47967;51.756;10.174;2023-04-29T14:14:33;99928.13;;;14.46;57.68
62011;BME280;47967;51.756;10.174;2023-04-29T14:18:36;99925.63;;;14.44;57.91
62011;BME280;47967;51.756;10.174;2023-04-29T14:22:38;99935.16;;;14.28;57.84
62011;BME280;47967;51.756;10.174;2023-04-29T14:26:42;99932.50;;;14.47;58.12
62011;BME280;47967;51.756;10.174;2023-04-29T14:30:45;99942.31;;;14.48;57.75
62011;BME280;47967;51.756;10.174;2023-04-29T14:34:47;99943.09;;;14.55;57.40
62011;BME280;47967;51.756;10.174;2023-04-29T14:38:50;99939.72;;;15.22;57.31
62011;BME280;47967;51.756;10.174;2023-04-29T14:42:54;99947.34;;;14.95;56.67
62011;BME280;47967;51.756;10.174;2023-04-29T14:46:56;99950.47;;;14.73;57.14
62011;BME280;47967;51.756;10.174;2023-04-29T14:50:59;99946.84;;;14.79;57.65
62011;BME280;47967;51.756;10.174;2023-04-29T14:55:02;99961.66;;;14.58;57.08
62011;BME280;47967;51.756;10.174;2023-04-29T14:59:06;99959.09;;;14.63;57.67
62011;BME280;47967;51.756;10.174;2023-04-29T15:03:09;99960.25;;;14.23;57.17
62011;BME280;47967;51.756;10.174;2023-04-29T15:07:22;99958.88;;;14.39;58.41
62011;BME280;47967;51.756;10.174;2023-04-29T15:11:25;99967.34;;;14.50;57.56
62011;BME280;47967;51.756;10.174;2023-04-29T15:15:29;99965.78;;;14.61;57.97
62011;BME280;47967;51.756;10.174;2023-04-29T15:19:31;99979.72;;;14.14;58.89
62011;BME280;47967;51.756;10.174;2023-04-29T15:23:34;99969.53;;;14.02;60.57
62011;BME280;47967;51.756;10.174;2023-04-29T15:27:37;99966.94;;;14.21;60.28
62011;BME280;47967;51.756;10.174;2023-04-29T15:31:41;99978.06;;;14.13;59.87
62011;BME280;47967;51.756;10.174;2023-04-29T15:35:43;99974.22;;;14.27;58.89
62011;BME280;47967;51.756;10.174;2023-04-29T15:39:46;99983.41;;;14.26;59.08
62011;BME280;47967;51.756;10.174;2023-04-29T15:43:49;99987.38;;;14.23;58.57
62011;BME280;47967;51.756;10.174;2023-04-29T15:47:53;99993.22;;;14.27;58.83
62011;BME280;47967;51.756;10.174;2023-04-29T15:51:55;99995.34;;;14.50;58.64
62011;BME280;47967;51.756;10.174;2023-04-29T15:55:58;99991.56;;;14.19;58.08
62011;BME280;47967;51.756;10.174;2023-04-29T16:00:01;100004.22;;;14.00;58.18
62011;BME280;47967;51.756;10.174;2023-04-29T16:04:06;99998.03;;;14.18;58.93
62011;BME280;47967;51.756;10.174;2023-04-29T16:08:09;100000.06;;;14.30;58.55
62011;BME280;47967;51.756;10.174;2023-04-29T16:12:12;100020.75;;;14.24;58.39
62011;BME280;47967;51.756;10.174;2023-04-29T16:16:14;100016.94;;;14.32;58.69
62011;BME280;47967;51.756;10.174;2023-04-29T16:20:18;100020.19;;;14.47;58.87
62011;BME280;47967;51.756;10.174;2023-04-29T16:24:22;100018.59;;;14.39;59.01
62011;BME280;47967;51.756;10.174;2023-04-29T16:28:24;100021.81;;;14.23;59.29
62011;BME280;47967;51.756;10.174;2023-04-29T16:32:27;100040.94;;;14.03;59.70
62011;BME280;47967;51.756;10.174;2023-04-29T16:36:31;100034.97;;;14.19;60.04
62011;BME280;47967;51.756;10.174;2023-04-29T16:40:34;100037.00;;;13.92;60.36
62011;BME280;47967;51.756;10.174;2023-04-29T16:44:36;100039.44;;;14.07;60.81
62011;BME280;47967;51.756;10.174;2023-04-29T16:48:39;100037.13;;;14.11;59.98
62011;BME280;47967;51.756;10.174;2023-04-29T16:52:43;100035.69;;;14.08;59.98
62011;BME280;47967;51.756;10.174;2023-04-29T16:56:46;100042.47;;;14.24;60.06
62011;BME280;47967;51.756;10.174;2023-04-29T17:00:51;100049.00;;;14.16;59.05
62011;BME280;47967;51.756;10.174;2023-04-29T17:04:54;100045.53;;;13.96;58.15
62011;BME280;47967;51.756;10.174;2023-04-29T17:08:58;100055.34;;;13.97;58.29
62011;BME280;47967;51.756;10.174;2023-04-29T17:13:01;100043.63;;;14.03;58.48
62011;BME280;47967;51.756;10.174;2023-04-29T17:17:03;100055.94;;;14.05;58.63
62011;BME280;47967;51.756;10.174;2023-04-29T17:21:06;100062.03;;;13.94;58.42
62011;BME280;47967;51.756;10.174;2023-04-29T17:25:10;100056.81;;;13.92;58.83
62011;BME280;47967;51.756;10.174;2023-04-29T17:29:14;100055.13;;;13.98;59.35
62011;BME280;47967;51.756;10.174;2023-04-29T17:33:16;100049.72;;;13.98;59.32
62011;BME280;47967;51.756;10.174;2023-04-29T17:37:19;100052.66;;;13.97;59.48
62011;BME280;47967;51.756;10.174;2023-04-29T17:41:26;100058.94;;;13.84;60.01
62011;BME280;47967;51.756;10.174;2023-04-29T17:45:29;100057.72;;;13.80;60.31
62011;BME280;47967;51.756;10.174;2023-04-29T17:49:31;100062.31;;;13.72;61.89
62011;BME280;47967;51.756;10.174;2023-04-29T17:53:34;100070.06;;;13.69;62.16
62011;BME280;47967;51.756;10.174;2023-04-29T17:57:38;100071.09;;;13.68;62.03
62011;BME280;47967;51.756;10.174;2023-04-29T18:01:41;100076.75;;;13.66;62.00
62011;BME280;47967;51.756;10.174;2023-04-29T18:05:43;100068.81;;;13.58;62.73
62011;BME280;47967;51.756;10.174;2023-04-29T18:09:47;100070.50;;;13.25;63.42
62011;BME280;47967;51.756;10.174;2023-04-29T18:13:52;100076.56;;;13.14;64.21
62011;BME280;47967;51.756;10.174;2023-04-29T18:17:55;100066.38;;;13.03;63.88
62011;BME280;47967;51.756;10.174;2023-04-29T18:21:58;100074.72;;;12.94;64.39
62011;BME280;47967;51.756;10.174;2023-04-29T18:26:01;100073.47;;;12.77;65.86
62011;BME280;47967;51.756;10.174;2023-04-29T18:30:07;100079.91;;;12.62;66.27
62011;BME280;47967;51.756;10.174;2023-04-29T18:34:10;100086.50;;;12.40;67.37
62011;BME280;47967;51.756;10.174;2023-04-29T18:38:13;100095.19;;;12.22;68.26
62011;BME280;47967;51.756;10.174;2023-04-29T18:42:17;100099.28;;;12.04;68.70
62011;BME280;47967;51.756;10.174;2023-04-29T18:46:22;100101.47;;;11.87;69.48
62011;BME280;47967;51.756;10.174;2023-04-29T18:50:24;100099.09;;;11.71;69.70
62011;BME280;47967;51.756;10.174;2023-04-29T18:54:27;100097.94;;;11.51;70.45
62011;BME280;47967;51.756;10.174;2023-04-29T18:58:30;100102.38;;;11.31;70.76
62011;BME280;47967;51.756;10.174;2023-04-29T19:02:34;100117.81;;;11.15;71.34
62011;BME280;47967;51.756;10.174;2023-04-29T19:06:37;100115.53;;;10.91;72.26
62011;BME280;47967;51.756;10.174;2023-04-29T19:10:40;100126.84;;;10.57;73.05
62011;BME280;47967;51.756;10.174;2023-04-29T19:14:42;100128.81;;;10.34;73.71
62011;BME280;47967;51.756;10.174;2023-04-29T19:18:46;100133.69;;;10.23;75.51
62011;BME280;47967;51.756;10.174;2023-04-29T19:22:49;100143.47;;;10.09;76.30
62011;BME280;47967;51.756;10.174;2023-04-29T19:26:52;100151.19;;;9.98;76.22
62011;BME280;47967;51.756;10.174;2023-04-29T19:30:54;100157.88;;;9.87;75.66
62011;BME280;47967;51.756;10.174;2023-04-29T19:34:58;100162.41;;;10.16;72.05
62011;BME280;47967;51.756;10.174;2023-04-29T19:39:01;100161.97;;;10.43;69.44
62011;BME280;47967;51.756;10.174;2023-04-29T19:43:04;100164.91;;;10.18;70.82
62011;BME280;47967;51.756;10.174;2023-04-29T19:47:07;100175.25;;;9.99;72.00
62011;BME280;47967;51.756;10.174;2023-04-29T19:51:11;100173.66;;;9.75;73.58
62011;BME280;47967;51.756;10.174;2023-04-29T19:55:14;100180.59;;;9.54;75.35
62011;BME280;47967;51.756;10.174;2023-04-29T19:59:16;100197.03;;;9.44;76.17
62011;BME280;47967;51.756;10.174;2023-04-29T20:03:19;100192.75;;;9.12;76.14
62011;BME280;47967;51.756;10.174;2023-04-29T20:07:23;100192.91;;;8.87;77.54
62011;BME280;47967;51.756;10.174;2023-04-29T20:11:25;100190.47;;;8.77;78.08
62011;BME280;47967;51.756;10.174;2023-04-29T20:15:28;100199.09;;;8.73;78.72
62011;BME280;47967;51.756;10.174;2023-04-29T20:19:31;100202.53;;;8.58;79.12
62011;BME280;47967;51.756;10.174;2023-04-29T20:23:36;100213.13;;;8.52;79.24
62011;BME280;47967;51.756;10.174;2023-04-29T20:27:39;100225.34;;;8.23;79.26
62011;BME280;47967;51.756;10.174;2023-04-29T20:31:42;100225.91;;;7.93;79.75
62011;BME280;47967;51.756;10.174;2023-04-29T20:35:45;100224.25;;;7.84;80.32
62011;BME280;47967;51.756;10.174;2023-04-29T20:39:49;100230.47;;;7.84;81.20
62011;BME280;47967;51.756;10.174;2023-04-29T20:43:52;100229.13;;;7.80;81.56
62011;BME280;47967;51.756;10.174;2023-04-29T20:48:01;100235.88;;;7.68;80.60
62011;BME280;47967;51.756;10.174;2023-04-29T20:52:04;100238.19;;;7.63;79.88
62011;BME280;47967;51.756;10.174;2023-04-29T20:56:08;100246.44;;;7.61;79.56
